sensor_id;sensor_type;location;lat;lon;timestamp;pressure;altitude;pressure_sealevel;temperature;humidity
77227;BME280;66234;47.642;19.144;2023-05-10T00:02:43;100545.50;;;12.74;62.56
77227;BME280;66234;47.642;19.144;2023-05-10T00:05:46;100540.19;;;12.61;63.23
77227;BME280;66234;47.642;19.144;2023-05-10T00:08:48;100546.41;;;12.55;63.70
77227;BME280;66234;47.642;19.144;2023-05-10T00:11:51;100533.66;;;12.44;64.33
77227;BME280;66234;47.642;19.144;2023-05-10T00:14:53;100535.34;;;12.32;64.44
77227;BME280;66234;47.642;19.144;2023-05-10T00:17:56;100537.88;;;12.14;65.25
77227;BME280;66234;47.642;19.144;2023-05-10T00:20:59;100534.22;;;11.96;66.14
77227;BME280;66234;47.642;19.144;2023-05-10T00:24:02;100534.03;;;11.71;67.03
77227;BME280;66234;47.642;19.144;2023-05-10T00:27:04;100529.69;;;11.63;67.43
77227;BME280;66234;47.642;19.144;2023-05-10T00:30:07;100535.44;;;11.54;67.88
77227;BME280;66234;47.642;19.144;2023-05-10T00:33:10;100533.59;;;11.48;68.30
77227;BME280;66234;47.642;19.144;2023-05-10T00:36:13;100529.25;;;11.40;68.46
77227;BME280;66234;47.642;19.144;2023-05-10T00:39:16;100528.25;;;11.35;69.53
77227;BME280;66234;47.642;19.144;2023-05-10T00:42:19;100529.06;;;11.29;69.33
77227;BME280;66234;47.642;19.144;2023-05-10T00:45:22;100530.91;;;11.35;69.55
77227;BME280;66234;47.642;19.144;2023-05-10T00:48:25;100530.50;;;11.38;69.40
77227;BME280;66234;47.642;19.144;2023-05-10T00:51:28;100535.66;;;11.46;69.71
77227;BME280;66234;47.642;19.144;2023-05-10T00:54:30;100530.50;;;11.57;69.20
77227;BME280;66234;47.642;19.144;2023-05-10T00:57:33;100535.69;;;11.66;68.92
77227;BME280;66234;47.642;19.144;2023-05-10T01:00:36;100528.44;;;11.79;68.04
77227;BME280;66234;47.642;19.144;2023-05-10T01:03:40;100516.94;;;11.79;68.23
77227;BME280;66234;47.642;19.144;2023-05-10T01:06:43;100517.53;;;11.87;68.09
77227;BME280;66234;47.642;19.144;2023-05-10T01:09:46;100516.28;;;11.90;67.99
77227;BME280;66234;47.642;19.144;2023-05-10T01:12:50;100515.25;;;11.84;68.03
77227;BME280;66234;47.642;19.144;2023-05-10T01:15:54;100515.25;;;11.78;68.25
77227;BME280;66234;47.642;19.144;2023-05-10T01:18:57;100521.66;;;11.70;68.71
77227;BME280;66234;47.642;19.144;2023-05-10T01:22:20;100520.03;;;11.69;68.83
77227;BME280;66234;47.642;19.144;2023-05-10T01:36:05;100517.72;;;11.92;68.36
77227;BME280;66234;47.642;19.144;2023-05-10T01:39:25;100523.72;;;11.94;68.38
77227;BME280;66234;47.642;19.144;2023-05-10T01:42:42;100517.09;;;12.03;68.20
77227;BME280;66234;47.642;19.144;2023-05-10T01:46:07;100518.72;;;12.04;68.33
77227;BME280;66234;47.642;19.144;2023-05-10T01:49:26;100513.75;;;12.14;67.58
77227;BME280;66234;47.642;19.144;2023-05-10T01:52:36;100511.03;;;12.21;67.68
77227;BME280;66234;47.642;19.144;2023-05-10T01:55:46;100513.50;;;12.29;67.10
77227;BME280;66234;47.642;19.144;2023-05-10T01:58:51;100512.47;;;12.30;67.10
77227;BME280;66234;47.642;19.144;2023-05-10T02:01:57;100513.31;;;12.24;67.52
77227;BME280;66234;47.642;19.144;2023-05-10T02:05:02;100510.59;;;12.30;67.00
77227;BME280;66234;47.642;19.144;2023-05-10T02:08:07;100506.69;;;12.33;66.91
77227;BME280;66234;47.642;19.144;2023-05-10T02:11:13;100496.56;;;12.28;67.54
77227;BME280;66234;47.642;19.144;2023-05-10T02:14:18;100503.53;;;12.42;66.73
77227;BME280;66234;47.642;19.144;2023-05-10T02:17:21;100494.06;;;12.40;66.83
77227;BME280;66234;47.642;19.144;2023-05-10T02:20:26;100494.44;;;12.50;66.73
77227;BME280;66234;47.642;19.144;2023-05-10T02:23:29;100494.81;;;12.53;66.56
77227;BME280;66234;47.642;19.144;2023-05-10T02:26:34;100496.66;;;12.59;66.49
77227;BME280;66234;47.642;19.144;2023-05-10T02:29:37;100498.38;;;12.47;66.60
77227;BME280;66234;47.642;19.144;2023-05-10T02:32:41;100498.97;;;12.49;66.93
77227;BME280;66234;47.642;19.144;2023-05-10T02:35:45;100506.19;;;12.55;66.29
77227;BME280;66234;47.642;19.144;2023-05-10T02:38:49;100501.44;;;12.57;66.32
77227;BME280;66234;47.642;19.144;2023-05-10T02:41:54;100496.50;;;12.54;66.39
77227;BME280;66234;47.642;19.144;2023-05-10T05:41:27;100532.94;;;12.11;70.15
77227;BME280;66234;47.642;19.144;2023-05-10T05:44:30;100533.28;;;12.34;69.53
77227;BME280;66234;47.642;19.144;2023-05-10T05:47:33;100536.25;;;12.64;68.52
77227;BME280;66234;47.642;19.144;2023-05-10T05:50:35;100543.34;;;12.89;67.64
77227;BME280;66234;47.642;19.144;2023-05-10T05:53:38;100536.28;;;12.95;67.62
77227;BME280;66234;47.642;19.144;2023-05-10T05:56:44;100542.63;;;12.76;67.93
77227;BME280;66234;47.642;19.144;2023-05-10T05:59:46;100542.56;;;12.82;67.93
77227;BME280;66234;47.642;19.144;2023-05-10T06:02:49;100538.63;;;12.85;67.15
77227;BME280;66234;47.642;19.144;2023-05-10T06:05:53;100542.50;;;13.02;67.14
77227;BME280;66234;47.642;19.144;2023-05-10T06:08:55;100544.75;;;13.05;66.18
77227;BME280;66234;47.642;19.144;2023-05-10T06:12:00;100543.88;;;13.11;65.50
77227;BME280;66234;47.642;19.144;2023-05-10T06:15:03;100546.31;;;13.19;65.58
77227;BME280;66234;47.642;19.144;2023-05-10T06:18:06;100535.91;;;13.29;64.94
77227;BME280;66234;47.642;19.144;2023-05-10T06:21:11;100547.25;;;13.31;65.49
77227;BME280;66234;47.642;19.144;2023-05-10T06:24:22;100547.53;;;13.48;64.59
77227;BME280;66234;47.642;19.144;2023-05-10T06:27:25;100545.41;;;13.56;64.25
77227;BME280;66234;47.642;19.144;2023-05-10T06:30:29;100539.56;;;13.66;63.91
77227;BME280;66234;47.642;19.144;2023-05-10T06:33:32;100551.97;;;13.85;63.05
77227;BME280;66234;47.642;19.144;2023-05-10T06:36:34;100555.78;;;13.77;62.25
77227;BME280;66234;47.642;19.144;2023-05-10T06:39:37;100553.13;;;13.71;62.75
77227;BME280;66234;47.642;19.144;2023-05-10T06:42:42;100552.53;;;13.93;61.84
77227;BME280;66234;47.642;19.144;2023-05-10T06:45:47;100546.16;;;14.12;61.72
77227;BME280;66234;47.642;19.144;2023-05-10T06:48:50;100550.88;;;14.35;60.77
77227;BME280;66234;47.642;19.144;2023-05-10T06:51:53;100550.88;;;14.35;60.04
77227;BME280;66234;47.642;19.144;2023-05-10T06:55:15;100541.00;;;14.47;60.49
77227;BME280;66234;47.642;19.144;2023-05-10T06:58:19;100543.09;;;14.63;59.21
77227;BME280;66234;47.642;19.144;2023-05-10T07:01:22;100540.22;;;14.76;58.69
77227;BME280;66234;47.642;19.144;2023-05-10T07:04:25;100545.13;;;14.67;58.62
77227;BME280;66234;47.642;19.144;2023-05-10T07:07:27;100544.16;;;14.92;58.32
77227;BME280;66234;47.642;19.144;2023-05-10T07:10:31;100553.16;;;15.15;57.75
77227;BME280;66234;47.642;19.144;2023-05-10T07:13:34;100547.41;;;15.41;57.32
77227;BME280;66234;47.642;19.144;2023-05-10T07:16:36;100549.22;;;15.29;55.70
77227;BME280;66234;47.642;19.144;2023-05-10T07:19:39;100551.63;;;15.19;56.80
77227;BME280;66234;47.642;19.144;2023-05-10T07:22:42;100546.38;;;15.42;56.08
77227;BME280;66234;47.642;19.144;2023-05-10T07:25:48;100551.66;;;15.60;56.10
77227;BME280;66234;47.642;19.144;2023-05-10T07:28:51;100546.19;;;15.90;54.93
77227;BME280;66234;47.642;19.144;2023-05-10T07:31:54;100540.03;;;16.29;54.24
77227;BME280;66234;47.642;19.144;2023-05-10T07:35:00;100543.13;;;16.21;53.51
77227;BME280;66234;47.642;19.144;2023-05-10T07:38:03;100539.59;;;16.09;54.40
77227;BME280;66234;47.642;19.144;2023-05-10T07:41:05;100544.16;;;16.31;53.50
77227;BME280;66234;47.642;19.144;2023-05-10T07:44:08;100532.44;;;16.14;53.69
77227;BME280;66234;47.642;19.144;2023-05-10T07:47:10;100531.44;;;16.67;52.90
77227;BME280;66234;47.642;19.144;2023-05-10T07:50:14;100531.53;;;16.72;52.55
77227;BME280;66234;47.642;19.144;2023-05-10T07:53:16;100535.34;;;16.87;51.90
77227;BME280;66234;47.642;19.144;2023-05-10T07:59:23;100533.56;;;17.37;51.77
77227;BME280;66234;47.642;19.144;2023-05-10T08:02:28;100532.22;;;17.51;50.79
77227;BME280;66234;47.642;19.144;2023-05-10T08:05:30;100540.19;;;17.02;51.93
77227;BME280;66234;47.642;19.144;2023-05-10T08:08:36;100536.47;;;16.63;53.02
77227;BME280;66234;47.642;19.144;2023-05-10T08:11:39;100539.63;;;16.72;52.58
77227;BME280;66234;47.642;19.144;2023-05-10T08:14:42;100537.69;;;16.95;52.86
77227;BME280;66234;47.642;19.144;2023-05-10T08:17:44;100533.66;;;16.98;53.44
77227;BME280;66234;47.642;19.144;2023-05-10T08:20:52;100538.19;;;16.81;52.46
77227;BME280;66234;47.642;19.144;2023-05-10T08:23:54;100535.25;;;16.82;52.65
77227;BME280;66234;47.642;19.144;2023-05-10T08:26:58;100534.03;;;17.18;52.75
77227;BME280;66234;47.642;19.144;2023-05-10T13:34:41;100328.50;;;24.75;30.54
77227;BME280;66234;47.642;19.144;2023-05-10T13:37:44;100331.75;;;24.77;29.32
77227;BME280;66234;47.642;19.144;2023-05-10T13:40:46;100324.81;;;24.29;30.41
77227;BME280;66234;47.642;19.144;2023-05-10T13:43:49;100318.47;;;22.87;32.88
77227;BME280;66234;47.642;19.144;2023-05-10T13:46:51;100314.41;;;23.89;31.06
77227;BME280;66234;47.642;19.144;2023-05-10T13:49:54;100312.50;;;23.14;32.73
77227;BME280;66234;47.642;19.144;2023-05-10T13:52:57;100318.94;;;22.17;33.35
77227;BME280;66234;47.642;19.144;2023-05-10T13:56:00;100324.19;;;22.08;32.58
77227;BME280;66234;47.642;19.144;2023-05-10T13:59:02;100313.38;;;21.93;33.09
77227;BME280;66234;47.642;19.144;2023-05-10T14:02:07;100312.97;;;21.41;34.87
77227;BME280;66234;47.642;19.144;2023-05-10T14:05:10;100306.66;;;21.61;34.60
77227;BME280;66234;47.642;19.144;2023-05-10T14:08:12;100304.31;;;21.29;34.95
77227;BME280;66234;47.642;19.144;2023-05-10T14:11:15;100303.97;;;22.63;33.13
77227;BME280;66234;47.642;19.144;2023-05-10T14:14:18;100297.47;;;21.47;33.54
77227;BME280;66234;47.642;19.144;2023-05-10T14:17:20;100298.53;;;21.46;34.39
77227;BME280;66234;47.642;19.144;2023-05-10T14:20:24;100301.88;;;20.92;35.38
77227;BME280;66234;47.642;19.144;2023-05-10T14:23:26;100306.47;;;21.32;35.06
77227;BME280;66234;47.642;19.144;2023-05-10T14:26:31;100295.78;;;22.19;33.34
77227;BME280;66234;47.642;19.144;2023-05-10T14:29:33;100280.16;;;22.35;33.29
77227;BME280;66234;47.642;19.144;2023-05-10T14:32:36;100279.00;;;23.08;32.33
77227;BME280;66234;47.642;19.144;2023-05-10T14:35:40;100290.28;;;23.54;31.79
77227;BME280;66234;47.642;19.144;2023-05-10T14:38:43;100286.97;;;22.32;32.80
77227;BME280;66234;47.642;19.144;2023-05-10T14:41:46;100289.75;;;21.69;34.07
77227;BME280;66234;47.642;19.144;2023-05-10T14:44:49;100291.28;;;21.06;35.76
77227;BME280;66234;47.642;19.144;2023-05-10T14:47:52;100282.72;;;22.21;33.27
77227;BME280;66234;47.642;19.144;2023-05-10T14:50:55;100287.84;;;21.64;34.74
77227;BME280;66234;47.642;19.144;2023-05-10T14:53:58;100290.72;;;21.24;34.70
77227;BME280;66234;47.642;19.144;2023-05-10T14:57:00;100300.00;;;20.93;34.52
77227;BME280;66234;47.642;19.144;2023-05-10T15:00:03;100297.28;;;21.08;33.79
77227;BME280;66234;47.642;19.144;2023-05-10T15:03:06;100296.72;;;21.16;34.55
77227;BME280;66234;47.642;19.144;2023-05-10T15:06:09;100301.56;;;21.34;33.02
77227;BME280;66234;47.642;19.144;2023-05-10T15:09:12;100293.06;;;21.56;33.63
77227;BME280;66234;47.642;19.144;2023-05-10T15:12:15;100288.91;;;22.32;31.41
77227;BME280;66234;47.642;19.144;2023-05-10T15:15:17;100290.22;;;21.91;32.56
77227;BME280;66234;47.642;19.144;2023-05-10T15:18:20;100283.78;;;21.67;34.18
77227;BME280;66234;47.642;19.144;2023-05-10T15:21:24;100278.66;;;23.15;31.32
77227;BME280;66234;47.642;19.144;2023-05-10T15:24:27;100290.09;;;23.87;30.90
77227;BME280;66234;47.642;19.144;2023-05-10T15:27:30;100281.00;;;23.31;30.95
77227;BME280;66234;47.642;19.144;2023-05-10T15:30:32;100283.22;;;22.23;32.89
77227;BME280;66234;47.642;19.144;2023-05-10T15:33:36;100288.47;;;21.41;34.98
77227;BME280;66234;47.642;19.144;2023-05-10T15:36:39;100286.13;;;22.37;33.81
77227;BME280;66234;47.642;19.144;2023-05-10T15:39:42;100282.56;;;22.41;32.85
77227;BME280;66234;47.642;19.144;2023-05-10T15:42:44;100275.72;;;23.11;32.15
77227;BME280;66234;47.642;19.144;2023-05-10T15:45:47;100278.78;;;24.55;30.62
77227;BME280;66234;47.642;19.144;2023-05-10T15:48:49;100268.88;;;25.50;28.36
77227;BME280;66234;47.642;19.144;2023-05-10T15:51:52;100279.66;;;25.14;28.43
77227;BME280;66234;47.642;19.144;2023-05-10T15:54:54;100271.38;;;26.01;26.88
77227;BME280;66234;47.642;19.144;2023-05-10T15:57:57;100264.59;;;26.56;26.69
77227;BME280;66234;47.642;19.144;2023-05-10T16:00:59;100274.88;;;26.28;27.58
77227;BME280;66234;47.642;19.144;2023-05-10T16:04:02;100268.03;;;25.22;29.68
77227;BME280;66234;47.642;19.144;2023-05-10T16:07:05;100268.88;;;24.91;30.46
77227;BME280;66234;47.642;19.144;2023-05-10T16:10:09;100263.16;;;25.19;29.48
77227;BME280;66234;47.642;19.144;2023-05-10T16:13:12;100277.09;;;24.40;30.96
77227;BME280;66234;47.642;19.144;2023-05-10T16:16:16;100277.97;;;24.54;30.98
77227;BME280;66234;47.642;19.144;2023-05-10T16:19:18;100266.63;;;24.28;30.38
77227;BME280;66234;47.642;19.144;2023-05-10T16:22:21;100263.22;;;25.01;29.83
77227;BME280;66234;47.642;19.144;2023-05-10T16:25:28;100264.00;;;24.37;31.04
77227;BME280;66234;47.642;19.144;2023-05-10T16:28:31;100260.94;;;24.57;31.34
77227;BME280;66234;47.642;19.144;2023-05-10T16:31:33;100276.09;;;25.00;30.35
77227;BME280;66234;47.642;19.144;2023-05-10T16:34:36;100272.31;;;24.83;30.95
77227;BME280;66234;47.642;19.144;2023-05-10T16:37:39;100277.47;;;24.15;31.81
77227;BME280;66234;47.642;19.144;2023-05-10T16:40:42;100282.91;;;24.52;31.38
77227;BME280;66234;47.642;19.144;2023-05-10T16:43:44;100277.25;;;24.30;31.94
77227;BME280;66234;47.642;19.144;2023-05-10T16:46:47;100283.28;;;23.90;32.20
77227;BME280;66234;47.642;19.144;2023-05-10T16:49:50;100281.00;;;23.31;32.74
77227;BME280;66234;47.642;19.144;2023-05-10T16:52:52;100282.22;;;22.53;34.01
77227;BME280;66234;47.642;19.144;2023-05-10T16:55:55;100292.34;;;22.47;33.97
77227;BME280;66234;47.642;19.144;2023-05-10T16:58:58;100294.09;;;22.28;33.91
77227;BME280;66234;47.642;19.144;2023-05-10T17:02:00;100298.63;;;21.10;35.92
77227;BME280;66234;47.642;19.144;2023-05-10T17:05:03;100299.16;;;21.17;36.09
77227;BME280;66234;47.642;19.144;2023-05-10T17:08:06;100301.38;;;20.95;37.35
77227;BME280;66234;47.642;19.144;2023-05-10T17:11:08;100303.19;;;20.30;37.67
77227;BME280;66234;47.642;19.144;2023-05-10T17:14:11;100309.09;;;20.07;38.59
77227;BME280;66234;47.642;19.144;2023-05-10T17:17:14;100309.63;;;19.94;38.54
77227;BME280;66234;47.642;19.144;2023-05-10T17:20:17;100312.56;;;19.87;38.97
77227;BME280;66234;47.642;19.144;2023-05-10T17:23:19;100309.47;;;19.63;39.54
77227;BME280;66234;47.642;19.144;2023-05-10T17:26:22;100310.56;;;19.63;39.72
77227;BME280;66234;47.642;19.144;2023-05-10T17:29:26;100311.28;;;19.38;40.40
77227;BME280;66234;47.642;19.144;2023-05-10T17:32:29;100316.34;;;18.93;40.73
77227;BME280;66234;47.642;19.144;2023-05-10T17:35:32;100311.50;;;18.95;40.40
77227;BME280;66234;47.642;19.144;2023-05-10T17:38:35;100315.06;;;18.69;40.77
77227;BME280;66234;47.642;19.144;2023-05-10T17:41:38;100318.59;;;18.69;40.16
77227;BME280;66234;47.642;19.144;2023-05-10T17:44:40;100317.09;;;18.25;41.44
77227;BME280;66234;47.642;19.144;2023-05-10T17:47:43;100320.03;;;18.24;41.48
77227;BME280;66234;47.642;19.144;2023-05-10T17:50:48;100321.69;;;18.03;41.67
77227;BME280;66234;47.642;19.144;2023-05-10T17:53:52;100314.22;;;17.88;41.71
77227;BME280;66234;47.642;19.144;2023-05-10T17:56:55;100323.09;;;17.84;41.80
77227;BME280;66234;47.642;19.144;2023-05-10T17:59:59;100328.75;;;17.61;43.02
77227;BME280;66234;47.642;19.144;2023-05-10T18:03:06;100327.06;;;17.38;43.53
77227;BME280;66234;47.642;19.144;2023-05-10T18:06:08;100335.03;;;17.45;43.22
77227;BME280;66234;47.642;19.144;2023-05-10T18:09:11;100335.28;;;17.27;43.87
77227;BME280;66234;47.642;19.144;2023-05-10T18:12:14;100330.94;;;17.26;43.88
77227;BME280;66234;47.642;19.144;2023-05-10T18:15:17;100331.38;;;17.18;44.13
77227;BME280;66234;47.642;19.144;2023-05-10T18:18:19;100339.63;;;17.11;44.63
77227;BME280;66234;47.642;19.144;2023-05-10T18:21:22;100341.03;;;17.14;44.61
77227;BME280;66234;47.642;19.144;2023-05-10T18:24:25;100343.00;;;17.02;45.14
77227;BME280;66234;47.642;19.144;2023-05-10T18:27:40;100343.25;;;16.84;45.53
77227;BME280;66234;47.642;19.144;2023-05-10T18:30:43;100342.63;;;16.77;46.04
77227;BME280;66234;47.642;19.144;2023-05-10T18:33:46;100345.13;;;16.67;46.27
77227;BME280;66234;47.642;19.144;2023-05-10T18:36:48;100355.81;;;16.62;46.55
77227;BME280;66234;47.642;19.144;2023-05-10T18:39:51;100353.56;;;16.54;46.79
77227;BME280;66234;47.642;19.144;2023-05-10T18:42:54;100361.06;;;16.52;47.13
77227;BME280;66234;47.642;19.144;2023-05-10T18:45:56;100364.25;;;16.49;47.16
77227;BME280;66234;47.642;19.144;2023-05-10T18:48:59;100362.28;;;16.32;47.81
77227;BME280;66234;47.642;19.144;2023-05-10T18:52:01;100358.44;;;16.28;47.81
77227;BME280;66234;47.642;19.144;2023-05-10T18:55:05;100368.06;;;16.24;47.96
77227;BME280;66234;47.642;19.144;2023-05-10T18:58:08;100371.16;;;16.16;48.38
77227;BME280;66234;47.642;19.144;2023-05-10T19:01:10;100371.16;;;16.16;48.44
77227;BME280;66234;47.642;19.144;2023-05-10T19:04:13;100376.31;;;16.18;48.00
77227;BME280;66234;47.642;19.144;2023-05-10T19:07:16;100373.88;;;16.16;48.17
77227;BME280;66234;47.642;19.144;2023-05-10T19:10:19;100377.97;;;16.19;47.53
77227;BME280;66234;47.642;19.144;2023-05-10T19:13:21;100381.84;;;16.11;48.08
77227;BME280;66234;47.642;19.144;2023-05-10T19:16:25;100378.09;;;16.12;47.79
77227;BME280;66234;47.642;19.144;2023-05-10T19:19:30;100384.06;;;16.14;47.58
77227;BME280;66234;47.642;19.144;2023-05-10T19:22:34;100380.53;;;16.14;47.63
77227;BME280;66234;47.642;19.144;2023-05-10T19:25:58;100382.00;;;15.93;48.49
77227;BME280;66234;47.642;19.144;2023-05-10T19:29:01;100382.06;;;15.82;48.53
77227;BME280;66234;47.642;19.144;2023-05-10T19:32:03;100375.03;;;15.81;48.32
77227;BME280;66234;47.642;19.144;2023-05-10T19:35:07;100375.81;;;15.81;48.08
77227;BME280;66234;47.642;19.144;2023-05-10T19:38:10;100376.91;;;15.80;47.96
77227;BME280;66234;47.642;19.144;2023-05-10T19:41:13;100373.84;;;15.88;47.52
77227;BME280;66234;47.642;19.144;2023-05-10T19:44:16;100369.47;;;15.87;47.46
77227;BME280;66234;47.642;19.144;2023-05-10T19:47:19;100372.34;;;15.81;47.91
77227;BME280;66234;47.642;19.144;2023-05-10T19:50:22;100378.09;;;15.73;47.68
77227;BME280;66234;47.642;19.144;2023-05-10T19:53:26;100375.94;;;15.75;47.75
77227;BME280;66234;47.642;19.144;2023-05-10T19:56:29;100377.38;;;15.77;47.40
77227;BME280;66234;47.642;19.144;2023-05-10T19:59:32;100371.25;;;15.82;47.08
77227;BME280;66234;47.642;19.144;2023-05-10T20:02:35;100372.22;;;15.76;47.13
77227;BME280;66234;47.642;19.144;2023-05-10T20:05:37;100372.34;;;15.69;47.28
77227;BME280;66234;47.642;19.144;2023-05-10T20:08:40;100368.72;;;15.64;47.48
77227;BME280;66234;47.642;19.144;2023-05-10T20:11:43;100368.72;;;15.64;47.69
77227;BME280;66234;47.642;19.144;2023-05-10T20:14:45;100365.69;;;15.60;47.96
77227;BME280;66234;47.642;19.144;2023-05-10T20:17:49;100371.66;;;15.51;48.40
77227;BME280;66234;47.642;19.144;2023-05-10T20:20:57;100371.53;;;15.46;48.71
77227;BME280;66234;47.642;19.144;2023-05-10T20:24:00;100377.28;;;15.38;48.96
77227;BME280;66234;47.642;19.144;2023-05-10T20:27:03;100374.44;;;15.21;50.51
77227;BME280;66234;47.642;19.144;2023-05-10T20:30:06;100382.88;;;15.13;50.34
77227;BME280;66234;47.642;19.144;2023-05-10T20:33:08;100372.81;;;15.09;50.58
77227;BME280;66234;47.642;19.144;2023-05-10T20:36:11;100379.47;;;15.06;50.75
77227;BME280;66234;47.642;19.144;2023-05-10T20:39:14;100369.03;;;14.98;50.77
77227;BME280;66234;47.642;19.144;2023-05-10T20:42:16;100372.56;;;14.99;51.11
77227;BME280;66234;47.642;19.144;2023-05-10T20:45:19;100371.97;;;14.97;50.81
77227;BME280;66234;47.642;19.144;2023-05-10T20:48:21;100377.94;;;14.87;51.28
77227;BME280;66234;47.642;19.144;2023-05-10T20:51:24;100379.34;;;14.90;51.47
77227;BME280;66234;47.642;19.144;2023-05-10T20:54:27;100381.59;;;14.93;51.45
77227;BME280;66234;47.642;19.144;2023-05-10T20:57:29;100375.38;;;14.92;51.47
77227;BME280;66234;47.642;19.144;2023-05-10T21:00:32;100374.91;;;14.95;50.90
77227;BME280;66234;47.642;19.144;2023-05-10T21:03:34;100366.47;;;14.92;51.36
77227;BME280;66234;47.642;19.144;2023-05-10T21:06:37;100365.06;;;14.89;51.26
77227;BME280;66234;47.642;19.144;2023-05-10T21:09:40;100370.91;;;14.86;50.85
77227;BME280;66234;47.642;19.144;2023-05-10T21:12:42;100371.50;;;14.88;51.33
77227;BME280;66234;47.642;19.144;2023-05-10T21:15:45;100362.97;;;14.91;51.16
77227;BME280;66234;47.642;19.144;2023-05-10T21:18:47;100368.13;;;14.93;51.06
77227;BME280;66234;47.642;19.144;2023-05-10T21:21:51;100363.53;;;14.93;51.31
77227;BME280;66234;47.642;19.144;2023-05-10T21:24:53;100372.06;;;14.90;50.59
77227;BME280;66234;47.642;19.144;2023-05-10T21:27:56;100369.50;;;14.95;50.93
77227;BME280;66234;47.642;19.144;2023-05-10T21:30:58;100368.59;;;14.90;52.13
77227;BME280;66234;47.642;19.144;2023-05-10T21:34:01;100374.06;;;14.83;52.74
77227;BME280;66234;47.642;19.144;2023-05-10T21:37:03;100377.22;;;14.80;53.20
77227;BME280;66234;47.642;19.144;2023-05-10T21:40:06;100372.31;;;14.77;52.41
77227;BME280;66234;47.642;19.144;2023-05-10T21:43:09;100378.00;;;14.69;52.38
77227;BME280;66234;47.642;19.144;2023-05-10T21:46:12;100375.56;;;14.67;52.66
77227;BME280;66234;47.642;19.144;2023-05-10T21:49:15;100376.47;;;14.61;53.36
77227;BME280;66234;47.642;19.144;2023-05-10T21:52:17;100375.41;;;14.62;53.10
77227;BME280;66234;47.642;19.144;2023-05-10T21:55:20;100375.19;;;14.64;53.25
77227;BME280;66234;47.642;19.144;2023-05-10T21:58:23;100373.19;;;14.59;54.00
77227;BME280;66234;47.642;19.144;2023-05-10T22:01:26;100372.97;;;14.61;53.88
77227;BME280;66234;47.642;19.144;2023-05-10T22:04:29;100374.72;;;14.55;54.25
77227;BME280;66234;47.642;19.144;2023-05-10T22:07:32;100376.88;;;14.47;54.87
77227;BME280;66234;47.642;19.144;2023-05-10T22:10:34;100377.25;;;14.50;54.46
77227;BME280;66234;47.642;19.144;2023-05-10T22:13:37;100378.88;;;14.51;54.67
77227;BME280;66234;47.642;19.144;2023-05-10T22:16:39;100370.34;;;14.43;54.58
77227;BME280;66234;47.642;19.144;2023-05-10T22:19:42;100381.09;;;14.43;55.36
77227;BME280;66234;47.642;19.144;2023-05-10T22:22:45;100386.25;;;14.44;54.49
77227;BME280;66234;47.642;19.144;2023-05-10T22:25:47;100382.72;;;14.44;54.56
77227;BME280;66234;47.642;19.144;2023-05-10T22:28:50;100386.94;;;14.40;55.14
77227;BME280;66234;47.642;19.144;2023-05-10T22:31:53;100385.72;;;14.36;54.44
77227;BME280;66234;47.642;19.144;2023-05-10T22:34:55;100390.53;;;14.34;54.25
77227;BME280;66234;47.642;19.144;2023-05-10T22:37:58;100381.50;;;14.28;53.66
77227;BME280;66234;47.642;19.144;2023-05-10T22:41:00;100378.50;;;14.18;52.49
77227;BME280;66234;47.642;19.144;2023-05-10T22:44:03;100380.91;;;14.08;51.73
77227;BME280;66234;47.642;19.144;2023-05-10T22:47:06;100388.47;;;14.00;52.17
77227;BME280;66234;47.642;19.144;2023-05-10T22:50:10;100388.69;;;13.98;51.26
77227;BME280;66234;47.642;19.144;2023-05-10T22:53:13;100388.16;;;13.90;51.16
77227;BME280;66234;47.642;19.144;2023-05-10T22:56:16;100394.31;;;13.97;51.57
77227;BME280;66234;47.642;19.144;2023-05-10T22:59:19;100392.41;;;13.97;52.22
77227;BME280;66234;47.642;19.144;2023-05-10T23:02:22;100391.16;;;14.00;51.32
77227;BME280;66234;47.642;19.144;2023-05-10T23:05:24;100388.69;;;13.98;51.54
77227;BME280;66234;47.642;19.144;2023-05-10T23:08:27;100382.94;;;13.95;50.66
77227;BME280;66234;47.642;19.144;2023-05-10T23:11:29;100383.25;;;13.87;51.04
77227;BME280;66234;47.642;19.144;2023-05-10T23:14:32;100377.88;;;13.87;51.08
77227;BME280;66234;47.642;19.144;2023-05-10T23:17:35;100382.06;;;13.83;50.59
77227;BME280;66234;47.642;19.144;2023-05-10T23:20:40;100379.50;;;13.70;50.44
77227;BME280;66234;47.642;19.144;2023-05-10T23:23:44;100379.66;;;13.57;50.93
77227;BME280;66234;47.642;19.144;2023-05-10T23:26:46;100383.44;;;13.49;50.95
77227;BME280;66234;47.642;19.144;2023-05-10T23:29:49;100385.91;;;13.51;50.03
77227;BME280;66234;47.642;19.144;2023-05-10T23:32:56;100387.81;;;13.50;50.57
77227;BME280;66234;47.642;19.144;2023-05-10T23:35:59;100389.28;;;13.46;50.75
77227;BME280;66234;47.642;19.144;2023-05-10T23:39:03;100390.31;;;13.45;51.05
77227;BME280;66234;47.642;19.144;2023-05-10T23:42:06;100395.91;;;13.44;51.00
77227;BME280;66234;47.642;19.144;2023-05-10T23:45:09;100392.78;;;13.47;50.40
77227;BME280;66234;47.642;19.144;2023-05-10T23:48:11;100399.28;;;13.57;49.93
77227;BME280;66234;47.642;19.144;2023-05-10T23:51:14;100398.78;;;13.67;50.03
77227;BME280;66234;47.642;19.144;2023-05-10T23:54:18;100394.59;;;13.71;49.96
77227;BME280;66234;47.642;19.144;2023-05-10T23:57:21;100402.59;;;13.77;50.41
